Time;durP1;ratioP1;P1;durP2;ratioP2;P2;SDS_P1;SDS_P2;PMS_P1;PMS_P2;Temp;Humidity;BMP_temperature;BMP_pressure;BME280_temperature;BME280_humidity;BME280_pressure;Samples;Min_cycle;Max_cycle;Signal;HPM_P1;HPM_P2
2021/09/21 00:01:38;;;;;;;11.20;9.57;;;;;;;;;;5022185;28;20036;-76
2021/09/21 00:04:05;;;;;;;11.35;10.15;;;;;;;;;;5034461;28;20419;-74
2021/09/21 00:06:31;;;;;;;12.88;9.32;;;;;;;;;;5033371;28;20394;-75
2021/09/21 00:08:57;;;;;;;11.23;9.30;;;;;;;;;;5033350;28;20034;-75
2021/09/21 00:11:23;;;;;;;12.52;9.27;;;;;;;;;;5033118;28;20021;-76
2021/09/21 00:13:49;;;;;;;11.27;9.75;;;;;;;;;;5035092;28;20033;-76
2021/09/21 00:16:15;;;;;;;12.02;9.45;;;;;;;;;;5032493;28;20025;-76
2021/09/21 00:18:41;;;;;;;11.88;9.82;;;;;;;;;;5020312;28;20083;-76
2021/09/21 00:21:08;;;;;;;10.57;9.30;;;;;;;;;;5014596;28;20026;-76
2021/09/21 00:23:34;;;;;;;12.07;9.45;;;;;;;;;;5034073;28;20022;-75
2021/09/21 00:26:01;;;;;;;12.93;10.00;;;;;;;;;;5025799;28;20025;-74
2021/09/21 00:28:30;;;;;;;11.55;9.30;;;;;;;;;;5018330;28;20395;-75
2021/09/21 00:31:03;;;;;;;12.48;9.43;;;;;;;;;;5021901;28;20022;-76
2021/09/21 00:33:35;;;;;;;10.00;9.00;;;;;;;;;;5032221;28;20083;-76
2021/09/21 00:36:01;;;;;;;11.48;9.10;;;;;;;;;;5033819;28;20255;-76
2021/09/21 00:38:29;;;;;;;11.85;9.50;;;;;;;;;;5031962;28;20033;-76
2021/09/21 00:40:55;;;;;;;12.68;9.98;;;;;;;;;;5032087;28;20372;-76
2021/09/21 00:43:22;;;;;;;12.48;9.30;;;;;;;;;;5032455;28;20028;-76
2021/09/21 00:45:48;;;;;;;11.02;9.05;;;;;;;;;;5025412;28;20091;-75
2021/09/21 00:48:14;;;;;;;11.48;8.82;;;;;;;;;;5032974;28;20091;-76
2021/09/21 00:50:43;;;;;;;10.27;8.57;;;;;;;;;;5025466;28;20021;-76
2021/09/21 00:53:10;;;;;;;13.95;9.55;;;;;;;;;;5016635;28;20087;-76
2021/09/21 00:55:36;;;;;;;9.90;8.80;;;;;;;;;;5033553;28;20071;-76
2021/09/21 00:58:02;;;;;;;10.77;8.75;;;;;;;;;;5030598;28;20047;-74
2021/09/21 01:00:28;;;;;;;9.80;8.48;;;;;;;;;;5029660;28;20064;-76
2021/09/21 01:02:54;;;;;;;12.30;8.82;;;;;;;;;;5019581;28;20426;-76
2021/09/21 01:05:20;;;;;;;13.35;8.25;;;;;;;;;;5033338;28;20535;-76
2021/09/21 01:07:46;;;;;;;11.30;9.20;;;;;;;;;;5026296;28;20056;-76
2021/09/21 01:10:15;;;;;;;10.02;7.68;;;;;;;;;;5031072;28;20049;-76
2021/09/21 01:12:41;;;;;;;11.52;8.65;;;;;;;;;;5030915;28;20100;-76
2021/09/21 01:15:08;;;;;;;11.35;8.43;;;;;;;;;;5031976;28;20090;-75
2021/09/21 01:17:34;;;;;;;9.63;8.32;;;;;;;;;;5013999;28;20053;-76
2021/09/21 01:20:01;;;;;;;11.48;9.13;;;;;;;;;;5024037;28;20163;-76
2021/09/21 01:22:27;;;;;;;12.23;8.60;;;;;;;;;;5021212;28;20476;-76
2021/09/21 01:24:53;;;;;;;11.73;8.43;;;;;;;;;;5032868;28;20053;-75
2021/09/21 01:27:20;;;;;;;10.00;7.75;;;;;;;;;;5021433;28;20029;-75
2021/09/21 01:29:46;;;;;;;9.75;8.18;;;;;;;;;;5027257;28;20041;-75
2021/09/21 01:32:12;;;;;;;9.82;8.15;;;;;;;;;;5016088;28;20109;-73
2021/09/21 01:34:38;;;;;;;9.95;8.18;;;;;;;;;;5032092;28;20039;-71
2021/09/21 01:37:05;;;;;;;12.80;8.65;;;;;;;;;;5030397;28;20076;-77
2021/09/21 01:39:32;;;;;;;10.48;8.43;;;;;;;;;;5013062;28;20053;-76
2021/09/21 01:41:59;;;;;;;9.77;8.45;;;;;;;;;;5034283;28;20051;-76
2021/09/21 01:44:26;;;;;;;11.73;8.70;;;;;;;;;;5017472;28;20017;-75
2021/09/21 01:46:52;;;;;;;11.07;8.32;;;;;;;;;;5030438;28;20079;-77
2021/09/21 01:49:19;;;;;;;11.18;8.40;;;;;;;;;;5027913;28;20033;-75
2021/09/21 01:52:11;;;;;;;11.63;8.63;;;;;;;;;;5032334;28;20025;-75
2021/09/21 01:59:48;;;;;;;9.05;7.95;;;;;;;;;;5030895;28;20099;-77
2021/09/21 02:02:14;;;;;;;9.10;8.20;;;;;;;;;;5022908;28;20057;-76
2021/09/21 02:04:40;;;;;;;12.32;8.38;;;;;;;;;;5027277;28;20030;-76
2021/09/21 02:07:06;;;;;;;10.95;8.38;;;;;;;;;;5029023;28;20099;-76
2021/09/21 02:09:32;;;;;;;9.98;7.88;;;;;;;;;;5025077;28;20156;-76
2021/09/21 02:11:58;;;;;;;10.90;8.10;;;;;;;;;;5031705;28;20013;-74
2021/09/21 02:14:27;;;;;;;11.18;8.52;;;;;;;;;;5038167;28;20022;-77
2021/09/21 02:16:54;;;;;;;11.35;8.40;;;;;;;;;;5006198;28;20065;-76
2021/09/21 02:19:21;;;;;;;10.00;8.52;;;;;;;;;;5018976;28;20502;-76
2021/09/21 02:21:47;;;;;;;9.98;8.68;;;;;;;;;;5029481;28;20033;-77
2021/09/21 02:24:18;;;;;;;11.13;8.23;;;;;;;;;;5018857;28;20083;-76
2021/09/21 02:26:44;;;;;;;14.27;8.52;;;;;;;;;;5034342;28;20025;-75
2021/09/21 02:29:10;;;;;;;11.27;8.45;;;;;;;;;;5031570;28;20155;-76
2021/09/21 02:31:37;;;;;;;9.35;8.05;;;;;;;;;;5043051;28;20108;-76
2021/09/21 02:34:03;;;;;;;9.60;7.80;;;;;;;;;;5041706;28;20034;-75
2021/09/21 02:36:29;;;;;;;8.90;8.00;;;;;;;;;;5036549;28;20439;-72
2021/09/21 02:38:55;;;;;;;10.02;8.43;;;;;;;;;;5034360;28;20115;-76
2021/09/21 02:41:22;;;;;;;11.80;8.00;;;;;;;;;;5036030;28;20017;-75
2021/09/21 02:43:48;;;;;;;10.77;8.48;;;;;;;;;;5024934;28;20034;-76
2021/09/21 02:46:14;;;;;;;13.13;8.52;;;;;;;;;;5025333;28;20039;-75
2021/09/21 02:48:40;;;;;;;10.02;8.20;;;;;;;;;;5035512;28;20096;-76
2021/09/21 02:51:06;;;;;;;10.60;8.20;;;;;;;;;;5036034;28;20039;-72
2021/09/21 02:53:32;;;;;;;11.57;8.70;;;;;;;;;;5035428;28;20053;-75
2021/09/21 02:56:00;;;;;;;11.85;8.07;;;;;;;;;;5033732;28;20463;-75
2021/09/21 02:58:27;;;;;;;10.35;7.63;;;;;;;;;;5035005;28;20030;-75
2021/09/21 03:00:55;;;;;;;12.32;7.82;;;;;;;;;;5033611;28;20052;-75
2021/09/21 03:03:24;;;;;;;9.75;8.27;;;;;;;;;;5033166;28;20025;-75
2021/09/21 03:06:00;;;;;;;11.15;8.57;;;;;;;;;;5030585;28;20025;-76
2021/09/21 03:08:30;;;;;;;9.18;7.63;;;;;;;;;;5033285;28;20021;-76
2021/09/21 03:11:14;;;;;;;11.40;8.45;;;;;;;;;;5035432;28;20033;-74
2021/09/21 03:18:52;;;;;;;11.60;8.68;;;;;;;;;;5020681;28;20069;-75
2021/09/21 03:21:18;;;;;;;12.65;8.02;;;;;;;;;;5029675;28;20021;-74
2021/09/21 03:23:44;;;;;;;11.88;8.70;;;;;;;;;;5026255;28;20025;-75
2021/09/21 03:26:10;;;;;;;12.70;8.38;;;;;;;;;;5031917;28;20038;-75
2021/09/21 03:28:36;;;;;;;13.25;8.82;;;;;;;;;;5033317;28;20032;-74
2021/09/21 03:31:02;;;;;;;10.80;8.13;;;;;;;;;;5034513;28;20489;-75
2021/09/21 03:33:28;;;;;;;9.30;8.20;;;;;;;;;;5034867;28;20076;-75
2021/09/21 03:35:54;;;;;;;12.35;8.93;;;;;;;;;;5035831;28;20104;-74
2021/09/21 03:38:20;;;;;;;14.45;8.85;;;;;;;;;;5032474;28;20033;-75
2021/09/21 03:40:46;;;;;;;12.27;8.80;;;;;;;;;;5031348;28;20075;-76
2021/09/21 03:43:13;;;;;;;9.95;8.80;;;;;;;;;;5025944;28;20036;-76
2021/09/21 03:45:39;;;;;;;11.43;9.25;;;;;;;;;;5021602;28;20045;-75
2021/09/21 03:48:07;;;;;;;9.63;8.40;;;;;;;;;;5029855;28;20026;-76
2021/09/21 03:50:34;;;;;;;12.32;9.23;;;;;;;;;;5034995;28;20532;-76
2021/09/21 03:53:00;;;;;;;26.63;9.07;;;;;;;;;;5032199;28;20030;-73
2021/09/21 03:55:26;;;;;;;10.43;8.20;;;;;;;;;;5023016;28;20076;-76
2021/09/21 03:57:52;;;;;;;9.68;8.68;;;;;;;;;;5029732;28;20476;-76
2021/09/21 04:00:19;;;;;;;9.00;8.10;;;;;;;;;;5032434;28;20033;-76
2021/09/21 04:02:45;;;;;;;10.52;8.63;;;;;;;;;;5027000;28;20040;-75
2021/09/21 04:05:11;;;;;;;12.10;8.93;;;;;;;;;;5034087;28;20049;-76
2021/09/21 04:07:40;;;;;;;13.85;8.60;;;;;;;;;;5032489;28;20056;-76
2021/09/21 04:10:06;;;;;;;10.30;8.50;;;;;;;;;;5033666;28;20403;-76
2021/09/21 04:12:32;;;;;;;9.93;8.75;;;;;;;;;;5034178;28;20025;-76
2021/09/21 04:14:59;;;;;;;11.27;8.63;;;;;;;;;;5016105;28;20087;-75
2021/09/21 04:17:25;;;;;;;12.30;9.15;;;;;;;;;;5022979;28;20121;-76
2021/09/21 04:19:51;;;;;;;10.25;8.75;;;;;;;;;;5023268;28;20017;-75
2021/09/21 04:22:17;;;;;;;10.85;8.68;;;;;;;;;;5042149;28;20071;-74
2021/09/21 04:24:43;;;;;;;11.30;9.27;;;;;;;;;;5033692;28;20028;-75
2021/09/21 04:27:09;;;;;;;11.95;9.98;;;;;;;;;;5031932;28;20030;-76
2021/09/21 04:29:35;;;;;;;10.10;9.10;;;;;;;;;;5033775;28;20029;-76
2021/09/21 04:32:02;;;;;;;12.73;9.93;;;;;;;;;;5029254;28;20082;-71
2021/09/21 04:34:32;;;;;;;10.57;9.23;;;;;;;;;;5039697;28;20033;-76
2021/09/21 04:36:59;;;;;;;14.32;10.27;;;;;;;;;;5026554;28;20021;-73
2021/09/21 04:39:26;;;;;;;11.88;9.77;;;;;;;;;;5041433;28;20511;-75
2021/09/21 04:41:52;;;;;;;11.35;9.30;;;;;;;;;;5015569;28;20032;-73
2021/09/21 04:44:18;;;;;;;12.05;9.93;;;;;;;;;;5033338;28;20483;-70
2021/09/21 04:46:44;;;;;;;15.32;10.95;;;;;;;;;;5029799;28;20099;-68
2021/09/21 04:49:13;;;;;;;16.38;11.20;;;;;;;;;;5027303;28;20104;-74
2021/09/21 04:51:39;;;;;;;16.88;10.48;;;;;;;;;;5018461;28;20100;-73
2021/09/21 04:54:05;;;;;;;16.90;10.15;;;;;;;;;;5026266;28;20026;-75
2021/09/21 04:56:32;;;;;;;14.65;9.77;;;;;;;;;;5019841;28;20032;-70
2021/09/21 04:58:58;;;;;;;16.52;11.75;;;;;;;;;;5017741;28;20042;-74
2021/09/21 05:01:24;;;;;;;17.13;11.48;;;;;;;;;;5017140;28;20022;-76
2021/09/21 05:03:50;;;;;;;12.27;10.13;;;;;;;;;;5040191;28;20029;-77
2021/09/21 05:06:16;;;;;;;12.50;10.90;;;;;;;;;;5037709;28;20017;-74
2021/09/21 05:08:46;;;;;;;16.27;10.00;;;;;;;;;;5045154;28;20120;-75
2021/09/21 05:11:12;;;;;;;12.50;10.65;;;;;;;;;;5028001;28;20026;-74
2021/09/21 05:13:38;;;;;;;15.90;11.73;;;;;;;;;;5024791;28;20112;-72
2021/09/21 05:16:23;;;;;;;13.55;11.65;;;;;;;;;;5037869;28;20495;-78
2021/09/21 05:18:50;;;;;;;14.50;11.20;;;;;;;;;;4997453;28;20054;-75
2021/09/21 05:21:16;;;;;;;16.00;11.30;;;;;;;;;;5029114;28;20103;-73
2021/09/21 05:23:42;;;;;;;19.27;12.90;;;;;;;;;;5024118;28;20045;-72
2021/09/21 05:26:12;;;;;;;15.02;11.70;;;;;;;;;;5033955;28;20045;-68
2021/09/21 05:28:39;;;;;;;15.57;11.73;;;;;;;;;;5036674;28;20128;-69
2021/09/21 05:31:05;;;;;;;12.80;11.10;;;;;;;;;;5028413;28;20114;-73
2021/09/21 05:33:31;;;;;;;14.00;11.30;;;;;;;;;;5029963;28;20029;-76
2021/09/21 05:35:57;;;;;;;15.32;11.93;;;;;;;;;;5024601;28;20032;-72
2021/09/21 05:38:23;;;;;;;13.38;11.10;;;;;;;;;;5017747;28;20036;-75
2021/09/21 05:40:51;;;;;;;17.42;11.32;;;;;;;;;;5035314;28;20068;-72
2021/09/21 05:43:17;;;;;;;17.20;12.13;;;;;;;;;;5032996;28;20049;-75
2021/09/21 05:45:43;;;;;;;14.38;11.52;;;;;;;;;;5023523;28;20029;-69
2021/09/21 05:48:09;;;;;;;15.60;11.30;;;;;;;;;;5026749;28;20026;-75
2021/09/21 05:50:35;;;;;;;14.07;10.70;;;;;;;;;;5035074;28;20115;-75
2021/09/21 05:53:01;;;;;;;12.73;10.25;;;;;;;;;;5019253;28;20036;-65
2021/09/21 05:55:28;;;;;;;15.48;10.75;;;;;;;;;;5018402;28;20488;-74
2021/09/21 05:57:54;;;;;;;14.48;11.43;;;;;;;;;;5032358;28;20045;-71
2021/09/21 06:00:20;;;;;;;14.27;11.73;;;;;;;;;;5027281;28;20033;-73
2021/09/21 06:02:46;;;;;;;102.88;34.67;;;;;;;;;;5028270;28;20395;-73
2021/09/21 06:05:24;;;;;;;21.42;13.43;;;;;;;;;;5025824;28;20072;-73
2021/09/21 06:07:54;;;;;;;19.98;13.60;;;;;;;;;;5026790;28;20029;-73
2021/09/21 06:10:21;;;;;;;16.95;13.63;;;;;;;;;;5002080;28;20395;-71
2021/09/21 06:12:47;;;;;;;16.92;13.25;;;;;;;;;;5003047;28;20033;-70
2021/09/21 06:15:14;;;;;;;15.43;12.93;;;;;;;;;;5025130;28;20030;-71
2021/09/21 06:17:43;;;;;;;17.60;13.05;;;;;;;;;;5018512;28;20029;-73
2021/09/21 06:20:10;;;;;;;21.60;13.77;;;;;;;;;;5016997;28;20021;-72
2021/09/21 06:22:40;;;;;;;15.85;11.80;;;;;;;;;;5020947;28;20050;-75
2021/09/21 06:25:15;;;;;;;14.68;12.40;;;;;;;;;;5039889;28;20021;-72
2021/09/21 06:27:41;;;;;;;13.95;10.85;;;;;;;;;;5018315;28;20026;-73
2021/09/21 06:32:54;;;;;;;13.95;11.13;;;;;;;;;;5037364;28;20040;-72
2021/09/21 06:35:20;;;;;;;13.18;10.68;;;;;;;;;;5001884;28;20049;-73
2021/09/21 06:37:47;;;;;;;11.85;10.05;;;;;;;;;;5029299;28;20042;-73
2021/09/21 06:40:13;;;;;;;14.60;10.60;;;;;;;;;;5025216;28;20040;-74
2021/09/21 06:42:42;;;;;;;15.80;10.75;;;;;;;;;;5028838;28;20069;-73
2021/09/21 06:45:09;;;;;;;15.75;11.63;;;;;;;;;;5007589;28;20454;-73
2021/09/21 06:47:35;;;;;;;13.23;10.38;;;;;;;;;;5025586;28;20026;-71
2021/09/21 06:50:01;;;;;;;11.90;10.35;;;;;;;;;;5003768;28;20029;-74
2021/09/21 06:52:30;;;;;;;15.32;10.65;;;;;;;;;;5038978;28;20064;-74
2021/09/21 06:54:57;;;;;;;14.60;10.52;;;;;;;;;;5027643;28;20018;-75
2021/09/21 06:57:23;;;;;;;17.17;12.18;;;;;;;;;;5031177;28;20496;-75
2021/09/21 06:59:49;;;;;;;17.65;12.18;;;;;;;;;;5032280;28;20033;-74
2021/09/21 07:02:15;;;;;;;32.95;16.25;;;;;;;;;;5035708;28;20365;-75
2021/09/21 07:04:41;;;;;;;32.13;16.70;;;;;;;;;;5036951;28;20029;-70
2021/09/21 07:07:14;;;;;;;94.22;36.53;;;;;;;;;;5011139;28;20060;-70
2021/09/21 07:09:40;;;;;;;16.42;12.63;;;;;;;;;;5037065;28;20083;-71
2021/09/21 07:12:14;;;;;;;15.73;13.38;;;;;;;;;;5024313;28;20018;-71
2021/09/21 07:14:53;;;;;;;16.63;12.35;;;;;;;;;;5015691;28;20052;-76
2021/09/21 07:17:27;;;;;;;17.80;10.80;;;;;;;;;;5002454;28;20034;-75
2021/09/21 07:19:55;;;;;;;17.25;11.98;;;;;;;;;;5047147;28;20100;-76
2021/09/21 07:22:21;;;;;;;18.20;11.90;;;;;;;;;;5026932;28;20022;-75
2021/09/21 07:24:47;;;;;;;12.13;10.93;;;;;;;;;;5007759;28;20113;-75
2021/09/21 07:27:16;;;;;;;14.60;11.50;;;;;;;;;;5027720;28;20025;-75
2021/09/21 07:29:42;;;;;;;18.98;11.90;;;;;;;;;;5032090;28;20022;-76
2021/09/21 07:32:08;;;;;;;16.38;11.68;;;;;;;;;;5038933;28;20450;-74
2021/09/21 07:34:34;;;;;;;14.05;11.38;;;;;;;;;;5012272;28;20060;-75
2021/09/21 07:37:02;;;;;;;16.48;11.73;;;;;;;;;;5033172;28;20160;-73
2021/09/21 07:39:28;;;;;;;14.13;11.50;;;;;;;;;;5022838;28;20053;-74
2021/09/21 07:41:56;;;;;;;14.30;11.57;;;;;;;;;;5028875;28;20030;-74
2021/09/21 07:44:36;;;;;;;13.57;10.98;;;;;;;;;;5025061;28;20636;-71
2021/09/21 07:47:02;;;;;;;16.15;10.43;;;;;;;;;;4991318;28;20048;-70
2021/09/21 07:49:28;;;;;;;16.92;10.80;;;;;;;;;;4990800;28;20062;-71
2021/09/21 07:51:57;;;;;;;16.92;11.20;;;;;;;;;;4992989;28;20034;-71
2021/09/21 07:55:00;;;;;;;48.05;19.38;;;;;;;;;;4972287;28;20058;-70
2021/09/21 07:57:28;;;;;;;38.95;17.52;;;;;;;;;;4998023;28;20085;-72
2021/09/21 07:59:54;;;;;;;17.42;12.15;;;;;;;;;;4993177;28;20523;-74
2021/09/21 08:02:23;;;;;;;21.70;11.90;;;;;;;;;;5003235;28;20038;-71
2021/09/21 08:04:49;;;;;;;18.70;10.55;;;;;;;;;;4977145;28;20037;-71
2021/09/21 08:07:15;;;;;;;13.07;9.73;;;;;;;;;;4991282;28;20032;-72
2021/09/21 08:09:45;;;;;;;24.55;13.05;;;;;;;;;;4976092;28;20066;-73
2021/09/21 08:12:11;;;;;;;15.93;10.25;;;;;;;;;;4989482;28;20392;-73
2021/09/21 08:14:38;;;;;;;14.10;10.10;;;;;;;;;;4990155;28;20042;-76
2021/09/21 08:17:05;;;;;;;13.68;9.82;;;;;;;;;;5002527;28;20048;-73
2021/09/21 08:19:35;;;;;;;14.57;9.13;;;;;;;;;;5025804;28;20050;-73
2021/09/21 08:22:01;;;;;;;15.15;9.40;;;;;;;;;;5031047;28;20053;-74
2021/09/21 08:24:33;;;;;;;12.30;8.88;;;;;;;;;;5000008;28;20026;-72
2021/09/21 08:26:59;;;;;;;13.10;9.45;;;;;;;;;;5011792;28;20022;-72
2021/09/21 08:29:25;;;;;;;13.77;9.10;;;;;;;;;;5010870;28;20395;-73
2021/09/21 08:31:54;;;;;;;11.70;8.82;;;;;;;;;;5029168;28;20048;-73
2021/09/21 08:34:20;;;;;;;9.77;7.68;;;;;;;;;;5005858;28;20112;-73
2021/09/21 08:36:49;;;;;;;9.85;8.35;;;;;;;;;;4999983;28;20106;-73
2021/09/21 08:39:19;;;;;;;10.93;7.68;;;;;;;;;;5012783;28;20049;-74
2021/09/21 08:41:47;;;;;;;14.43;7.80;;;;;;;;;;5021307;28;20029;-72
2021/09/21 08:44:13;;;;;;;10.23;7.85;;;;;;;;;;5009950;28;20025;-71
2021/09/21 08:46:40;;;;;;;12.93;8.27;;;;;;;;;;5001190;28;20033;-73
2021/09/21 08:49:06;;;;;;;18.40;12.48;;;;;;;;;;5027528;28;20022;-74
2021/09/21 08:51:32;;;;;;;11.18;7.68;;;;;;;;;;5029217;28;20120;-74
2021/09/21 08:53:58;;;;;;;8.70;6.70;;;;;;;;;;5007379;28;20049;-73
2021/09/21 08:56:24;;;;;;;11.05;6.82;;;;;;;;;;5030121;28;20017;-74
2021/09/21 08:59:04;;;;;;;8.10;5.95;;;;;;;;;;5009628;28;20499;-68
2021/09/21 09:01:41;;;;;;;9.15;5.40;;;;;;;;;;5024792;28;20040;-68
2021/09/21 09:04:07;;;;;;;8.32;5.60;;;;;;;;;;5028571;28;20037;-69
2021/09/21 09:06:46;;;;;;;7.25;5.10;;;;;;;;;;5025271;28;20545;-68
2021/09/21 09:09:22;;;;;;;9.15;5.72;;;;;;;;;;5028955;28;20042;-70
2021/09/21 09:11:49;;;;;;;9.50;5.47;;;;;;;;;;5023499;28;20029;-80
2021/09/21 09:14:26;;;;;;;8.35;5.22;;;;;;;;;;5021398;28;20056;-76
2021/09/21 09:17:34;;;;;;;6.78;4.85;;;;;;;;;;5023380;28;20034;-71
2021/09/21 09:19:59;;;;;;;6.50;4.82;;;;;;;;;;5021664;28;20032;-74
2021/09/21 09:22:29;;;;;;;8.65;5.25;;;;;;;;;;5009063;28;20112;-73
2021/09/21 09:24:56;;;;;;;7.68;4.88;;;;;;;;;;5011314;28;20029;-71
2021/09/21 09:27:39;;;;;;;6.80;4.20;;;;;;;;;;5007772;28;20037;-73
2021/09/21 09:30:15;;;;;;;7.47;4.40;;;;;;;;;;5028420;28;20468;-73
2021/09/21 09:32:51;;;;;;;4.72;3.75;;;;;;;;;;5005603;28;20455;-72
2021/09/21 09:35:30;;;;;;;5.90;4.43;;;;;;;;;;5025231;28;20484;-69
2021/09/21 09:38:00;;;;;;;10.40;4.40;;;;;;;;;;5026610;28;20607;-69
2021/09/21 09:40:27;;;;;;;6.82;4.07;;;;;;;;;;5025184;28;20054;-69
2021/09/21 09:42:54;;;;;;;4.55;4.00;;;;;;;;;;5020313;28;20033;-68
2021/09/21 09:45:46;;;;;;;5.65;4.70;;;;;;;;;;5018084;28;20052;-68
2021/09/21 09:48:14;;;;;;;7.13;4.55;;;;;;;;;;5020226;28;20033;-86
2021/09/21 09:50:44;;;;;;;6.60;4.13;;;;;;;;;;5050569;28;20365;-79
2021/09/21 09:53:13;;;;;;;5.97;3.70;;;;;;;;;;5039895;28;20627;-80
2021/09/21 09:55:44;;;;;;;4.78;3.65;;;;;;;;;;5051772;28;20049;-83
2021/09/21 09:58:14;;;;;;;5.70;3.92;;;;;;;;;;5006710;28;20113;-74
2021/09/21 10:00:40;;;;;;;7.47;4.00;;;;;;;;;;5007314;28;20042;-72
2021/09/21 10:03:07;;;;;;;8.93;3.92;;;;;;;;;;5031773;28;20474;-73
2021/09/21 10:05:38;;;;;;;5.50;3.95;;;;;;;;;;5025678;28;20076;-72
2021/09/21 10:08:25;;;;;;;6.07;4.32;;;;;;;;;;5003171;28;20030;-74
2021/09/21 10:10:51;;;;;;;6.47;3.80;;;;;;;;;;5010613;28;20745;-69
2021/09/21 10:13:18;;;;;;;5.05;4.00;;;;;;;;;;4999408;28;20113;-70
2021/09/21 10:15:45;;;;;;;6.10;4.43;;;;;;;;;;4995848;28;20116;-68
2021/09/21 10:18:21;;;;;;;5.65;4.03;;;;;;;;;;5013794;28;20080;-69
2021/09/21 10:21:01;;;;;;;8.35;4.40;;;;;;;;;;5016899;28;20036;-69
2021/09/21 10:23:31;;;;;;;4.30;3.65;;;;;;;;;;5018498;28;20368;-68
2021/09/21 10:26:05;;;;;;;4.72;3.75;;;;;;;;;;5017151;28;20050;-70
2021/09/21 10:28:38;;;;;;;5.65;3.83;;;;;;;;;;5015909;28;20101;-69
2021/09/21 10:31:13;;;;;;;6.28;4.18;;;;;;;;;;5019391;28;20035;-74
2021/09/21 10:33:39;;;;;;;5.70;4.18;;;;;;;;;;5024704;28;20041;-75
2021/09/21 10:36:15;;;;;;;4.97;3.53;;;;;;;;;;5027120;28;20108;-73
2021/09/21 10:38:51;;;;;;;7.28;4.00;;;;;;;;;;5008658;28;20398;-73
2021/09/21 10:41:17;;;;;;;5.75;3.80;;;;;;;;;;5016757;28;20046;-74
2021/09/21 10:43:44;;;;;;;5.30;3.65;;;;;;;;;;5017661;28;20033;-73
2021/09/21 10:46:22;;;;;;;6.30;4.05;;;;;;;;;;5030386;28;20474;-73
2021/09/21 10:48:58;;;;;;;6.97;4.30;;;;;;;;;;5024257;28;20029;-75
2021/09/21 10:51:24;;;;;;;4.90;3.97;;;;;;;;;;5000731;28;20080;-73
2021/09/21 10:54:42;;;;;;;6.35;4.00;;;;;;;;;;5034196;28;20456;-84
2021/09/21 10:57:13;;;;;;;6.10;3.90;;;;;;;;;;4992983;28;20045;-73
2021/09/21 10:59:40;;;;;;;5.05;4.00;;;;;;;;;;5029145;28;20484;-74
2021/09/21 11:02:11;;;;;;;5.90;4.03;;;;;;;;;;5024597;28;20034;-74
2021/09/21 11:04:44;;;;;;;6.93;4.40;;;;;;;;;;5016280;28;20037;-71
2021/09/21 11:07:11;;;;;;;6.22;4.45;;;;;;;;;;5011463;28;20049;-79
2021/09/21 11:09:40;;;;;;;9.27;4.70;;;;;;;;;;5008556;28;21956;-71
2021/09/21 11:12:09;;;;;;;7.55;4.90;;;;;;;;;;5039318;28;20030;-72
2021/09/21 11:14:42;;;;;;;7.20;4.55;;;;;;;;;;5038463;28;20033;-70
2021/09/21 11:17:09;;;;;;;5.68;4.35;;;;;;;;;;5031874;28;20045;-70
2021/09/21 11:19:36;;;;;;;7.63;4.47;;;;;;;;;;5024171;28;20179;-70
2021/09/21 11:22:04;;;;;;;6.32;4.50;;;;;;;;;;5025944;28;20037;-69
2021/09/21 11:24:30;;;;;;;5.53;4.63;;;;;;;;;;5021551;28;20117;-68
2021/09/21 11:27:00;;;;;;;6.05;4.60;;;;;;;;;;5038295;28;20031;-68
2021/09/21 11:29:27;;;;;;;7.07;4.60;;;;;;;;;;5031860;28;20392;-80
2021/09/21 11:32:04;;;;;;;5.88;4.40;;;;;;;;;;5026699;28;20124;-71
2021/09/21 11:35:00;;;;;;;5.95;3.95;;;;;;;;;;5010247;28;20121;-71
2021/09/21 11:37:33;;;;;;;7.38;4.80;;;;;;;;;;4988763;28;20034;-72
2021/09/21 11:40:00;;;;;;;9.10;4.30;;;;;;;;;;4970912;28;20053;-75
2021/09/21 11:42:29;;;;;;;5.53;4.80;;;;;;;;;;4991865;28;20027;-75
2021/09/21 11:45:09;;;;;;;6.60;4.10;;;;;;;;;;4986414;28;20038;-72
2021/09/21 11:48:07;;;;;;;7.63;5.15;;;;;;;;;;4985883;28;20041;-72
2021/09/21 11:50:34;;;;;;;7.85;4.78;;;;;;;;;;4932222;29;20043;-72
2021/09/21 11:53:04;;;;;;;6.10;4.72;;;;;;;;;;4918258;29;20051;-71
2021/09/21 11:55:40;;;;;;;5.93;4.32;;;;;;;;;;4930330;29;20040;-72
2021/09/21 11:58:12;;;;;;;7.80;4.88;;;;;;;;;;4932539;29;20257;-71
2021/09/21 12:01:11;;;;;;;5.47;4.70;;;;;;;;;;4934958;29;20028;-71
2021/09/21 12:03:37;;;;;;;6.25;4.43;;;;;;;;;;4856245;29;20125;-71
2021/09/21 12:06:21;;;;;;;8.18;4.57;;;;;;;;;;4858009;29;20040;-72
2021/09/21 12:08:59;;;;;;;;;;;;;;;;;;;;;
2021/09/21 12:11:26;;;;;;;7.65;4.70;;;;;;;;;;4891441;29;20027;-70
2021/09/21 12:13:52;;;;;;;7.47;5.50;;;;;;;;;;4893712;29;20040;-83
2021/09/21 12:16:23;;;;;;;5.55;4.90;;;;;;;;;;4894437;29;20040;-85
2021/09/21 12:18:49;;;;;;;9.30;4.60;;;;;;;;;;4878625;29;20766;-81
2021/09/21 12:21:17;;;;;;;6.55;4.57;;;;;;;;;;4906081;29;20039;-79
2021/09/21 12:23:44;;;;;;;8.02;5.18;;;;;;;;;;4906134;29;20131;-79
2021/09/21 12:26:10;;;;;;;6.70;4.50;;;;;;;;;;4914223;29;20093;-84
2021/09/21 12:28:38;;;;;;;6.85;4.57;;;;;;;;;;4913481;29;20491;-76
2021/09/21 12:31:10;;;;;;;7.90;5.28;;;;;;;;;;4922097;29;20028;-74
2021/09/21 12:33:37;;;;;;;7.87;5.10;;;;;;;;;;4953310;28;20495;-74
2021/09/21 12:36:07;;;;;;;6.35;5.07;;;;;;;;;;5014018;28;20749;-72
2021/09/21 12:38:35;;;;;;;11.52;5.18;;;;;;;;;;4999436;28;20515;-74
2021/09/21 12:41:05;;;;;;;10.13;5.47;;;;;;;;;;5015066;28;20423;-73
2021/09/21 12:43:32;;;;;;;7.53;5.50;;;;;;;;;;5003222;28;20033;-74
2021/09/21 12:46:10;;;;;;;7.13;5.03;;;;;;;;;;5013297;28;20018;-84
2021/09/21 12:48:40;;;;;;;6.70;5.20;;;;;;;;;;5025193;28;20044;-74
2021/09/21 12:51:10;;;;;;;7.78;5.40;;;;;;;;;;5032950;28;20053;-73
2021/09/21 12:53:42;;;;;;;7.28;5.25;;;;;;;;;;5021986;28;20057;-83
2021/09/21 12:56:12;;;;;;;6.18;5.45;;;;;;;;;;5010054;28;20025;-77
2021/09/21 12:58:41;;;;;;;7.43;5.43;;;;;;;;;;5022025;28;20042;-79
2021/09/21 13:01:08;;;;;;;8.93;4.75;;;;;;;;;;5029902;28;20029;-72
2021/09/21 13:03:36;;;;;;;8.93;4.90;;;;;;;;;;5023575;28;20026;-76
2021/09/21 13:06:03;;;;;;;6.70;4.93;;;;;;;;;;5027170;28;20522;-83
2021/09/21 13:08:30;;;;;;;7.60;5.50;;;;;;;;;;5021715;28;20030;-75
2021/09/21 13:10:56;;;;;;;8.63;5.10;;;;;;;;;;5036028;28;20021;-79
2021/09/21 13:13:22;;;;;;;7.05;5.10;;;;;;;;;;5021934;28;20022;-79
2021/09/21 13:15:48;;;;;;;6.97;5.25;;;;;;;;;;5027561;28;20480;-75
2021/09/21 13:18:15;;;;;;;6.57;5.50;;;;;;;;;;5036295;28;20037;-71
2021/09/21 13:20:41;;;;;;;9.57;5.82;;;;;;;;;;5024546;28;20036;-81
2021/09/21 13:23:08;;;;;;;9.50;5.20;;;;;;;;;;5017913;28;20084;-74
2021/09/21 13:25:35;;;;;;;7.72;5.30;;;;;;;;;;5023422;28;20465;-78
2021/09/21 13:28:02;;;;;;;5.88;5.10;;;;;;;;;;5038633;28;20482;-73
2021/09/21 13:30:28;;;;;;;7.82;5.53;;;;;;;;;;5036688;28;20107;-79
2021/09/21 13:32:54;;;;;;;9.45;5.43;;;;;;;;;;5022312;28;20756;-71
2021/09/21 13:35:21;;;;;;;7.93;5.30;;;;;;;;;;5024913;28;20060;-69
2021/09/21 13:37:47;;;;;;;8.13;5.70;;;;;;;;;;5040476;28;20118;-75
2021/09/21 13:40:18;;;;;;;7.30;5.13;;;;;;;;;;5027282;28;20430;-76
2021/09/21 13:42:45;;;;;;;8.23;5.35;;;;;;;;;;5030881;28;20048;-77
2021/09/21 13:45:15;;;;;;;9.32;5.40;;;;;;;;;;5024857;28;20097;-77
2021/09/21 13:47:41;;;;;;;7.15;5.45;;;;;;;;;;5020045;28;20100;-79
2021/09/21 13:50:07;;;;;;;7.80;5.35;;;;;;;;;;5039951;28;20032;-72
2021/09/21 13:52:33;;;;;;;7.35;5.55;;;;;;;;;;5029818;28;20021;-74
2021/09/21 13:54:59;;;;;;;10.60;6.30;;;;;;;;;;5021209;28;20022;-66
2021/09/21 13:57:26;;;;;;;7.03;5.70;;;;;;;;;;5002160;28;20033;-80
2021/09/21 13:59:52;;;;;;;7.97;6.32;;;;;;;;;;5026997;28;20025;-87
2021/09/21 14:02:18;;;;;;;6.43;5.30;;;;;;;;;;5036659;28;20379;-81
2021/09/21 14:04:45;;;;;;;8.13;5.90;;;;;;;;;;5022931;28;20029;-80
2021/09/21 14:07:13;;;;;;;7.35;5.45;;;;;;;;;;5023173;28;20029;-85
2021/09/21 14:09:39;;;;;;;7.38;5.50;;;;;;;;;;5028152;28;20029;-78
2021/09/21 14:12:05;;;;;;;9.57;5.63;;;;;;;;;;5037608;28;20034;-79
2021/09/21 14:14:31;;;;;;;6.97;6.28;;;;;;;;;;5026618;28;20501;-78
2021/09/21 14:16:57;;;;;;;8.15;6.10;;;;;;;;;;5020895;28;20030;-81
2021/09/21 14:19:23;;;;;;;10.18;7.15;;;;;;;;;;5032077;28;20030;-83
2021/09/21 14:21:49;;;;;;;12.32;6.82;;;;;;;;;;5026865;28;20030;-85
2021/09/21 14:24:17;;;;;;;12.77;6.88;;;;;;;;;;5019294;28;20037;-68
2021/09/21 14:26:47;;;;;;;8.38;6.53;;;;;;;;;;5032722;28;20072;-69
2021/09/21 14:29:14;;;;;;;6.53;5.20;;;;;;;;;;5035582;28;20017;-80
2021/09/21 14:31:40;;;;;;;6.88;5.45;;;;;;;;;;5027615;28;20089;-73
2021/09/21 14:34:09;;;;;;;6.47;5.40;;;;;;;;;;5030776;28;20495;-72
2021/09/21 14:36:35;;;;;;;6.72;5.65;;;;;;;;;;5014329;28;20079;-77
2021/09/21 14:39:01;;;;;;;7.78;5.57;;;;;;;;;;5047369;28;20041;-73
2021/09/21 14:41:27;;;;;;;6.70;5.88;;;;;;;;;;5037300;28;20017;-72
2021/09/21 14:43:55;;;;;;;10.38;5.80;;;;;;;;;;5029901;28;20159;-73
2021/09/21 14:46:22;;;;;;;7.88;5.65;;;;;;;;;;5026896;28;20010;-73
2021/09/21 14:48:48;;;;;;;8.15;5.68;;;;;;;;;;5024219;28;20037;-71
2021/09/21 14:51:15;;;;;;;7.72;6.07;;;;;;;;;;5038086;28;20035;-72
2021/09/21 14:53:43;;;;;;;7.85;5.93;;;;;;;;;;5035563;28;20057;-73
2021/09/21 14:56:09;;;;;;;8.32;5.90;;;;;;;;;;5017766;28;20120;-73